Waukesha, WI (53186)

5:03 AM CDT on March 27, 2017 (GMT -0500)
Minooka Parkway Estates | | Change Station

Elev 830 ft 42.99 °N, 88.20 °W | Updated 50 seconds ago

Overcast
Overcast
39.9 °F
Feels Like 40 °F
N
0.0
Wind Variable Wind from West

Today
High -- | Low -- °F
--% Chance of Precip.
Yesterday
High -- | Low -- °F
Precip. -- in
Pressure 29.90 in
Visibility 10.0 miles
Clouds Scattered Clouds 700 ft
Overcast 2100 ft
Windchill 40 °F
Dew Point 38 °F
Humidity 93%
Rainfall 0.00 in
Snow Depth Not available.
6:43 AM 7:13 PM
Waning Crescent, 1% visible
METAR KUES 270955Z AUTO 28006KT 10SM SCT007 OVC021 03/03 A2990 RMK AO2
Pressure 29.90 in
Visibility 10.0 miles
Clouds Scattered Clouds 700 ft
Overcast 2100 ft
Windchill 40 °F
Dew Point 38 °F
Humidity 93%
Rainfall 0.00 in
Snow Depth Not available.
6:43 AM 7:13 PM
Waning Crescent, 1% visible
METAR KUES 270955Z AUTO 28006KT 10SM SCT007 OVC021 03/03 A2990 RMK AO2

Get Severe Weather Alerts

Thanks for signing up!

Be on the lookout for a verification email in your inbox.

You'll start receiving the daily forecast at 8 AM.

×

10-Day Weather Forecast

Almanac

Astronomy

Mar. 27, 2017 Rise Set
Actual Time
Civil Twilight
Nautical Twilight
Astronomical Twilight
Moon
Length of Visible Light
Length of Day
Tomorrow will be .
, % of the Moon is Illuminated

Today's Extremes

State Highs State Lows

Community

WunderPhotos

Upload Photos

1,962,540 photos uploaded!

WunderBlog® & News

Nearby

Air Quality

  Air Quality AQ Index Pollutant
Not available.

Snow Depth

Station Depth Elevation

Earthquake Activity

City Distance Mag. Time & Date
Minimum magnitude displayed is 2.5.

Earthquake Activity

City Distance Mag. Time & Date
Minimum magnitude displayed is 2.5.

Coastal Water Temperatures

Place Temperature

Stations

Nearby Weather Stations

Station Location Temp. Windchill Dew Point Humidity Wind Precip. Elev Updated Type
                   

Watches & Warnings

There are currently no watches in effect.